• Join FlightAware (Why Join?)
  • Login
  • US Flag 
09:41AM EDT


 

Airport Tracker/Info


-or-


 

Live Flight TrackerFlight Track Log ✈ CTL309 ✈ 17-Jul-2013 ✈ KOSU - KHAO

Flight Track Log - Related Links

Times and Time Zones

All times are in EDT time to prevent confusion due to time zone crossing. See the CTL309 flight status page for this flight to view local times or setup timezone preferences in your user account.

Time Position Orientation Groundspeed Altitude Reporting Facility
EDT Latitude Longitude Course Direction KTS MPH feet Rate Location/Type
03:42AM 40.0650 -83.1306 239° Southwest 143 165 1,700  Level Indianapolis Center
03:43AM 40.0436 -83.1769 239° Southwest 146 168 2,600 720 Climbing Indianapolis Center
03:44AM 40.0231 -83.2256 241° Southwest 149 171 3,300 600 Climbing Indianapolis Center
03:45AM 39.9986 -83.2711 235° Southwest 151 174 3,900 240 Climbing Indianapolis Center
03:46AM 39.9717 -83.3219 235° Southwest 159 183 3,800  Descending Indianapolis Center
03:47AM 39.9439 -83.3744 235° Southwest 168 193 3,900  Climbing Indianapolis Center
03:48AM 39.9194 -83.4278 239° Southwest 171 197 3,900  Level Indianapolis Center
03:49AM 39.8950 -83.4789 238° Southwest 169 194 3,900 60 Level Indianapolis Center
03:50AM 39.8692 -83.5286 236° Southwest 169 194 4,100  Climbing Indianapolis Center
03:51AM 39.8436 -83.5797 237° Southwest 169 194 4,000 -60 Descending Indianapolis Center
03:52AM 39.8194 -83.6331 239° Southwest 170 196 4,000  Level Indianapolis Center
03:53AM 39.7939 -83.6836 237° Southwest 168 193 4,000  Level Indianapolis Center
03:54AM 39.7658 -83.7344 234° Southwest 170 196 4,000  Level Indianapolis Center
03:55AM 39.7436 -83.7850 240° Southwest 170 196 4,000  Level Indianapolis Center
03:56AM 39.7064 -83.8589 237° Southwest 170 196 4,000  Level Indianapolis Center
03:57AM 39.6944 -83.8814 235° Southwest 138 159 4,000  Level Indianapolis Center
03:58AM 39.6653 -83.9319 233° Southwest 172 198 4,000  Level Indianapolis Center
03:59AM 39.6369 -83.9769 231° Southwest 169 194 4,000  Level Indianapolis Center
03:59AM 39.6258 -84.0083 245° Southwest 172 198 4,000  Level Indianapolis Center
04:00AM 39.6114 -84.0347 235° Southwest 171 197 4,000  Level Indianapolis Center
04:00AM 39.5992 -84.0606 238° Southwest 170 196 4,000  Level Indianapolis Center
04:01AM 39.5867 -84.0867 238° Southwest 171 197 4,000  Level Indianapolis Center
04:02AM 39.5608 -84.1369 236° Southwest 169 194 4,000  Level Indianapolis Center
04:03AM 39.5300 -84.1861 231° Southwest 171 197 4,000  Level Indianapolis Center
04:04AM 39.5044 -84.2333 235° Southwest 169 194 4,000  Level Indianapolis Center
04:05AM 39.4808 -84.2836 239° Southwest 170 196 4,000  Level Indianapolis Center
04:07AM 39.4249 -84.3696 232° Southwest  Level FlightAware Approximate
04:14AM 39.3500 -84.5167 229° Southwest  Level FlightAware Approximate
04:15AM 39.3638 -84.5219 229° Southwest  Level Estimated
04:16AM 39.3638 -84.5219 229° Southwest  Level Estimated
04:17AM 39.3638 -84.5219 229° Southwest  Level Estimated
04:18AM 39.3638 -84.5219 229° Southwest  Level Estimated
04:19AM 39.3638 -84.5219 229° Southwest  Level Estimated